Ital Libera — ICDK — position and weather

sailwx.info

Track history (hours):
 
Tides and Currents Weather Stations Pressure Air Temp Water Temp Dewpoint Dewpoint Depression Visibility Wind Speed Wind Dir Waves Ship Positions

Ital Libera

Last reported at 2018-Feb-19 23:31 UTC. Time now 2018-Feb-20 01:42 UTC.
Position S 27°22' E 153°11'.

Length 294 m; draft 11.7 m.

Type: Ship. MMSI: 247188100.

Date/timePositionNaut miles runAvg speedWind from/ knotsBaromVisibWave heightAir tempDewpointWater temp
2018-Feb-19 23:31S 27°22' E 153°11'0 0.0
2018-Feb-19 23:30S 27°22' E 153°11'1 2.3
2018-Feb-19 23:00S 27°21' E 153°11'612.9
2018-Feb-19 22:30S 27°16' E 153°16'40 4.9
2018-Feb-19 14:26S 27°40' E 153°52'614.6
2018-Feb-19 14:00S 27°46' E 153°54'914.6
2018-Feb-19 13:25S 27°54' E 153°57'614.3
2018-Feb-19 12:59S 27°60' E 153°58'714.3
2018-Feb-19 12:30S 28°07' E 153°57'715.0
2018-Feb-19 12:00S 28°14' E 153°55'815.4
2018-Feb-19 11:30S 28°21' E 153°53'815.6
2018-Feb-19 10:59S 28°29' E 153°52'1016.3
2018-Feb-19 10:24S 28°39' E 153°50'13 5.1
2018-Feb-19 07:54S 28°52' E 153°50'2 3.0
2018-Feb-19 07:20S 28°53' E 153°50'2 4.8
2018-Feb-19 06:50S 28°56' E 153°50'2 4.6
2018-Feb-19 06:26S 28°57' E 153°50'6 9.1
2018-Feb-19 05:45S 29°04' E 153°49'415.7
2018-Feb-19 05:30S 29°07' E 153°48'917.7
2018-Feb-19 05:00S 29°16' E 153°47'12616.8
2018-Feb-18 21:30S 31°18' E 153°12'1016.4
2018-Feb-18 20:53S 31°28' E 153°08'717.3
2018-Feb-18 20:30S 31°34' E 153°05'918.2
2018-Feb-18 20:00S 31°42' E 153°01'1018.1
2018-Feb-18 19:29S 31°51' E 152°57'818.0
2018-Feb-18 19:00S 31°59' E 152°54'918.7
2018-Feb-18 18:30S 32°08' E 152°50'1019.5
2018-Feb-18 18:00S 32°17' E 152°46'1019.3
2018-Feb-18 17:30S 32°26' E 152°41'918.9
2018-Feb-18 17:00S 32°34' E 152°35'918.6
2018-Feb-18 16:30S 32°41' E 152°28'918.4
2018-Feb-18 16:00S 32°48' E 152°21'918.3
2018-Feb-18 15:30S 32°55' E 152°14'918.1
2018-Feb-18 15:00S 33°02' E 152°07'918.1
2018-Feb-18 14:30S 33°08' E 151°60'917.8
2018-Feb-18 14:00S 33°16' E 151°53'917.5
2018-Feb-18 13:30S 33°23' E 151°48'917.5
2018-Feb-18 13:00S 33°31' E 151°44'917.4
2018-Feb-18 12:30S 33°39' E 151°39'917.5
2018-Feb-18 12:00S 33°47' E 151°34'917.6
2018-Feb-18 11:30S 33°54' E 151°29'917.1
2018-Feb-18 11:00S 34°00' E 151°21'710.0
2018-Feb-18 10:16S 33°59' E 151°13'1 0.3
2018-Feb-18 06:30S 33°58' E 151°12'  
2018-Feb-15 20:20S 38°17' E 149°04'618.5
2018-Feb-15 20:00S 38°21' E 148°58'19212.9
2018-Feb-15 05:06S 38°01' E 144°55'614.3
2018-Feb-15 04:41S 37°55' E 144°56'213.4
2018-Feb-15 04:30S 37°53' E 144°56'4 5.8
2018-Feb-15 03:50S 37°49' E 144°55'0 0.0
2018-Feb-14 17:57S 37°49' E 144°55'0 0.0
2018-Feb-14 17:12S 37°49' E 144°55'0 0.0
2018-Feb-14 16:45S 37°49' E 144°55'0 0.0
2018-Feb-14 15:27S 37°49' E 144°55'0 0.0
2018-Feb-14 13:57S 37°49' E 144°55'0 0.0
2018-Feb-13 18:54S 37°49' E 144°55'0 0.7
2018-Feb-13 18:29S 37°49' E 144°55'1 2.7
2018-Feb-13 17:58S 37°50' E 144°54'4 7.6
2018-Feb-13 17:25S 37°54' E 144°56'512.0
2018-Feb-13 17:00S 37°59' E 144°55'816.6
2018-Feb-13 16:30S 38°07' E 144°55'1117.8
2018-Feb-13 15:54S 38°18' E 144°55'614.0
2018-Feb-13 15:28S 38°19' E 144°47'817.1
2018-Feb-13 15:00S 38°18' E 144°37'510.8
2018-Feb-13 14:30S 38°22' E 144°32'19916.4
2018-Feb-13 02:22S 38°28' E 148°46'719.1
2018-Feb-13 01:59S 38°24' E 148°53'1019.0
2018-Feb-13 01:29S 38°18' E 149°03'919.1
2018-Feb-13 01:00S 38°11' E 149°12'1219.1
2018-Feb-13 00:22S 38°04' E 149°24'718.8
2018-Feb-12 23:59S 37°59' E 149°30'26017.6
2018-Feb-12 09:15S 33°59' E 151°34'418.1
2018-Feb-12 09:00S 33°55' E 151°37'4718.4
2018-Feb-12 06:26S 33°13' E 152°02'818.3
2018-Feb-12 06:00S 33°07' E 152°08'918.2
2018-Feb-12 05:30S 33°00' E 152°15'918.2
2018-Feb-12 05:00S 32°53' E 152°22'918.3
2018-Feb-12 04:30S 32°46' E 152°28'918.3
2018-Feb-12 04:00S 32°39' E 152°35'917.9
2018-Feb-12 03:30S 32°32' E 152°42'1217.2
2018-Feb-12 02:48S 32°23' E 152°51'19619.0
2018-Feb-11 16:27S 29°13' E 153°48'919.6
2018-Feb-11 16:00S 29°04' E 153°50'1019.8
2018-Feb-11 15:30S 28°54' E 153°51'1019.8
2018-Feb-11 15:00S 28°44' E 153°52'1019.6
2018-Feb-11 14:30S 28°34' E 153°52'1019.5
2018-Feb-11 14:00S 28°25' E 153°52'1019.4
2018-Feb-11 13:30S 28°15' E 153°52'1019.2
2018-Feb-11 13:00S 28°05' E 153°52'1019.2
2018-Feb-11 12:30S 27°56' E 153°52'1019.7
2018-Feb-11 12:00S 27°46' E 153°52'1019.9
2018-Feb-11 11:30S 27°36' E 153°52'1019.8
2018-Feb-11 11:00S 27°26' E 153°52'1019.7
2018-Feb-11 10:30S 27°16' E 153°52'1019.5
2018-Feb-11 10:00S 27°06' E 153°52'1019.5
2018-Feb-11 09:30S 26°57' E 153°52'1720.1
2018-Feb-11 08:39S 26°39' E 153°52'320.4
2018-Feb-11 08:30S 26°36' E 153°52'1020.5
2018-Feb-11 08:00S 26°26' E 153°52'1020.1
2018-Feb-11 07:30S 26°16' E 153°52'1019.4
2018-Feb-11 07:00S 26°06' E 153°52'1619.2
2018-Feb-11 06:09S 25°50' E 153°53'318.6
2018-Feb-11 06:00S 25°47' E 153°53'3619.5
2018-Feb-11 04:09S 25°12' E 153°58'  
Track history (hours):
 
Tides and Currents Weather Stations Pressure Air Temp Water Temp Dewpoint Dewpoint Depression Visibility Wind Speed Wind Dir Waves Ship Positions

Ital Libera

Last reported at 2018-Feb-19 23:31 UTC. Time now 2018-Feb-20 01:43 UTC.
Position S 27°22' E 153°11'.

Length 294 m; draft 11.7 m.

Type: Ship. MMSI: 247188100.

Date/timePositionNaut miles runAvg speedWind from/ knotsBaromVisibWave heightAir tempDewpointWater temp
2018-Feb-19 23:31S 27°22' E 153°11'0 0.0
2018-Feb-19 23:30S 27°22' E 153°11'1 2.3
2018-Feb-19 23:00S 27°21' E 153°11'612.9
2018-Feb-19 22:30S 27°16' E 153°16'40 4.9
2018-Feb-19 14:26S 27°40' E 153°52'614.6
2018-Feb-19 14:00S 27°46' E 153°54'914.6
2018-Feb-19 13:25S 27°54' E 153°57'614.3
2018-Feb-19 12:59S 27°60' E 153°58'714.3
2018-Feb-19 12:30S 28°07' E 153°57'715.0
2018-Feb-19 12:00S 28°14' E 153°55'815.4
2018-Feb-19 11:30S 28°21' E 153°53'815.6
2018-Feb-19 10:59S 28°29' E 153°52'1016.3
2018-Feb-19 10:24S 28°39' E 153°50'13 5.1
2018-Feb-19 07:54S 28°52' E 153°50'2 3.0
2018-Feb-19 07:20S 28°53' E 153°50'2 4.8
2018-Feb-19 06:50S 28°56' E 153°50'2 4.6
2018-Feb-19 06:26S 28°57' E 153°50'6 9.1
2018-Feb-19 05:45S 29°04' E 153°49'415.7
2018-Feb-19 05:30S 29°07' E 153°48'917.7
2018-Feb-19 05:00S 29°16' E 153°47'12616.8
2018-Feb-18 21:30S 31°18' E 153°12'1016.4
2018-Feb-18 20:53S 31°28' E 153°08'717.3
2018-Feb-18 20:30S 31°34' E 153°05'918.2
2018-Feb-18 20:00S 31°42' E 153°01'1018.1
2018-Feb-18 19:29S 31°51' E 152°57'818.0
2018-Feb-18 19:00S 31°59' E 152°54'918.7
2018-Feb-18 18:30S 32°08' E 152°50'1019.5
2018-Feb-18 18:00S 32°17' E 152°46'1019.3
2018-Feb-18 17:30S 32°26' E 152°41'918.9
2018-Feb-18 17:00S 32°34' E 152°35'918.6
2018-Feb-18 16:30S 32°41' E 152°28'918.4
2018-Feb-18 16:00S 32°48' E 152°21'918.3
2018-Feb-18 15:30S 32°55' E 152°14'918.1
2018-Feb-18 15:00S 33°02' E 152°07'918.1
2018-Feb-18 14:30S 33°08' E 151°60'917.8
2018-Feb-18 14:00S 33°16' E 151°53'917.5
2018-Feb-18 13:30S 33°23' E 151°48'917.5
2018-Feb-18 13:00S 33°31' E 151°44'917.4
2018-Feb-18 12:30S 33°39' E 151°39'917.5
2018-Feb-18 12:00S 33°47' E 151°34'917.6
2018-Feb-18 11:30S 33°54' E 151°29'917.1
2018-Feb-18 11:00S 34°00' E 151°21'710.0
2018-Feb-18 10:16S 33°59' E 151°13'1 0.3
2018-Feb-18 06:30S 33°58' E 151°12'  
2018-Feb-15 20:20S 38°17' E 149°04'618.5
2018-Feb-15 20:00S 38°21' E 148°58'19212.9
2018-Feb-15 05:06S 38°01' E 144°55'614.3
2018-Feb-15 04:41S 37°55' E 144°56'213.4
2018-Feb-15 04:30S 37°53' E 144°56'4 5.8
2018-Feb-15 03:50S 37°49' E 144°55'0 0.0
2018-Feb-14 17:57S 37°49' E 144°55'0 0.0
2018-Feb-14 17:12S 37°49' E 144°55'0 0.0
2018-Feb-14 16:45S 37°49' E 144°55'0 0.0
2018-Feb-14 15:27S 37°49' E 144°55'0 0.0
2018-Feb-14 13:57S 37°49' E 144°55'0 0.0
2018-Feb-13 18:54S 37°49' E 144°55'0 0.7
2018-Feb-13 18:29S 37°49' E 144°55'1 2.7
2018-Feb-13 17:58S 37°50' E 144°54'4 7.6
2018-Feb-13 17:25S 37°54' E 144°56'512.0
2018-Feb-13 17:00S 37°59' E 144°55'816.6
2018-Feb-13 16:30S 38°07' E 144°55'1117.8
2018-Feb-13 15:54S 38°18' E 144°55'614.0
2018-Feb-13 15:28S 38°19' E 144°47'817.1
2018-Feb-13 15:00S 38°18' E 144°37'510.8
2018-Feb-13 14:30S 38°22' E 144°32'19916.4
2018-Feb-13 02:22S 38°28' E 148°46'719.1
2018-Feb-13 01:59S 38°24' E 148°53'1019.0
2018-Feb-13 01:29S 38°18' E 149°03'919.1
2018-Feb-13 01:00S 38°11' E 149°12'1219.1
2018-Feb-13 00:22S 38°04' E 149°24'718.8
2018-Feb-12 23:59S 37°59' E 149°30'26017.6
2018-Feb-12 09:15S 33°59' E 151°34'418.1
2018-Feb-12 09:00S 33°55' E 151°37'4718.4
2018-Feb-12 06:26S 33°13' E 152°02'818.3
2018-Feb-12 06:00S 33°07' E 152°08'918.2
2018-Feb-12 05:30S 33°00' E 152°15'918.2
2018-Feb-12 05:00S 32°53' E 152°22'918.3
2018-Feb-12 04:30S 32°46' E 152°28'918.3
2018-Feb-12 04:00S 32°39' E 152°35'917.9
2018-Feb-12 03:30S 32°32' E 152°42'1217.2
2018-Feb-12 02:48S 32°23' E 152°51'19619.0
2018-Feb-11 16:27S 29°13' E 153°48'919.6
2018-Feb-11 16:00S 29°04' E 153°50'1019.8
2018-Feb-11 15:30S 28°54' E 153°51'1019.8
2018-Feb-11 15:00S 28°44' E 153°52'1019.6
2018-Feb-11 14:30S 28°34' E 153°52'1019.5
2018-Feb-11 14:00S 28°25' E 153°52'1019.4
2018-Feb-11 13:30S 28°15' E 153°52'1019.2
2018-Feb-11 13:00S 28°05' E 153°52'1019.2
2018-Feb-11 12:30S 27°56' E 153°52'1019.7
2018-Feb-11 12:00S 27°46' E 153°52'1019.9
2018-Feb-11 11:30S 27°36' E 153°52'1019.8
2018-Feb-11 11:00S 27°26' E 153°52'1019.7
2018-Feb-11 10:30S 27°16' E 153°52'1019.5
2018-Feb-11 10:00S 27°06' E 153°52'1019.5
2018-Feb-11 09:30S 26°57' E 153°52'1720.1
2018-Feb-11 08:39S 26°39' E 153°52'320.4
2018-Feb-11 08:30S 26°36' E 153°52'1020.5
2018-Feb-11 08:00S 26°26' E 153°52'1020.1
2018-Feb-11 07:30S 26°16' E 153°52'1019.4
2018-Feb-11 07:00S 26°06' E 153°52'1619.2
2018-Feb-11 06:09S 25°50' E 153°53'318.6
2018-Feb-11 06:00S 25°47' E 153°53'3619.5
2018-Feb-11 04:09S 25°12' E 153°58'  

Dump ship's entire track history